sensor_id;sensor_type;location;lat;lon;timestamp;temperature;humidity
43049;DHT22;28673;44.412;11.918;2023-04-30T00:01:48;14.30;99.90
43049;DHT22;28673;44.412;11.918;2023-04-30T00:04:13;14.30;99.90
43049;DHT22;28673;44.412;11.918;2023-04-30T00:06:39;14.30;99.90
43049;DHT22;28673;44.412;11.918;2023-04-30T00:09:05;14.20;99.90
43049;DHT22;28673;44.412;11.918;2023-04-30T00:11:31;14.20;99.90
43049;DHT22;28673;44.412;11.918;2023-04-30T00:13:57;14.20;99.90
43049;DHT22;28673;44.412;11.918;2023-04-30T00:16:23;14.10;99.90
43049;DHT22;28673;44.412;11.918;2023-04-30T00:18:49;14.10;99.90
43049;DHT22;28673;44.412;11.918;2023-04-30T00:21:14;14.10;99.90
43049;DHT22;28673;44.412;11.918;2023-04-30T00:23:41;14.00;99.90
43049;DHT22;28673;44.412;11.918;2023-04-30T00:26:06;14.00;99.90
43049;DHT22;28673;44.412;11.918;2023-04-30T00:28:32;14.00;99.90
43049;DHT22;28673;44.412;11.918;2023-04-30T00:30:58;14.00;99.90
43049;DHT22;28673;44.412;11.918;2023-04-30T00:33:24;13.90;99.90
43049;DHT22;28673;44.412;11.918;2023-04-30T00:35:50;13.90;99.90
43049;DHT22;28673;44.412;11.918;2023-04-30T00:38:15;13.90;99.90
43049;DHT22;28673;44.412;11.918;2023-04-30T00:40:42;13.90;99.90
43049;DHT22;28673;44.412;11.918;2023-04-30T00:43:09;13.90;99.90
43049;DHT22;28673;44.412;11.918;2023-04-30T00:45:35;13.90;99.90
43049;DHT22;28673;44.412;11.918;2023-04-30T00:48:01;13.90;99.90
43049;DHT22;28673;44.412;11.918;2023-04-30T00:50:28;13.90;99.90
43049;DHT22;28673;44.412;11.918;2023-04-30T00:52:54;13.90;99.90
43049;DHT22;28673;44.412;11.918;2023-04-30T00:55:20;13.90;99.90
43049;DHT22;28673;44.412;11.918;2023-04-30T00:57:46;13.80;99.90
43049;DHT22;28673;44.412;11.918;2023-04-30T01:00:12;13.80;99.90
43049;DHT22;28673;44.412;11.918;2023-04-30T01:02:41;13.80;99.90
43049;DHT22;28673;44.412;11.918;2023-04-30T01:05:08;13.80;99.90
43049;DHT22;28673;44.412;11.918;2023-04-30T01:07:37;13.80;99.90
43049;DHT22;28673;44.412;11.918;2023-04-30T01:10:06;13.70;99.90
43049;DHT22;28673;44.412;11.918;2023-04-30T01:15:27;13.70;99.90
43049;DHT22;28673;44.412;11.918;2023-04-30T01:18:21;13.70;99.90
43049;DHT22;28673;44.412;11.918;2023-04-30T01:21:04;13.70;99.90
43049;DHT22;28673;44.412;11.918;2023-04-30T01:29:04;13.60;99.90
43049;DHT22;28673;44.412;11.918;2023-04-30T01:31:32;13.60;99.90
43049;DHT22;28673;44.412;11.918;2023-04-30T01:33:57;13.60;99.90
43049;DHT22;28673;44.412;11.918;2023-04-30T01:47:19;13.50;99.90
43049;DHT22;28673;44.412;11.918;2023-04-30T01:52:39;13.50;99.90
43049;DHT22;28673;44.412;11.918;2023-04-30T01:55:07;13.40;99.90
43049;DHT22;28673;44.412;11.918;2023-04-30T01:57:37;13.40;99.90
43049;DHT22;28673;44.412;11.918;2023-04-30T02:00:05;13.30;99.90
43049;DHT22;28673;44.412;11.918;2023-04-30T02:02:39;13.40;99.90
43049;DHT22;28673;44.412;11.918;2023-04-30T02:05:05;13.40;99.90
43049;DHT22;28673;44.412;11.918;2023-04-30T02:07:41;13.30;99.90
43049;DHT22;28673;44.412;11.918;2023-04-30T02:10:09;13.30;99.90
43049;DHT22;28673;44.412;11.918;2023-04-30T02:12:36;13.20;99.90
43049;DHT22;28673;44.412;11.918;2023-04-30T02:15:04;13.20;99.90
43049;DHT22;28673;44.412;11.918;2023-04-30T02:17:30;13.20;99.90
43049;DHT22;28673;44.412;11.918;2023-04-30T02:19:57;13.20;99.90
43049;DHT22;28673;44.412;11.918;2023-04-30T02:22:23;13.20;99.90
43049;DHT22;28673;44.412;11.918;2023-04-30T02:24:49;13.20;99.90
43049;DHT22;28673;44.412;11.918;2023-04-30T02:27:16;13.10;99.90
43049;DHT22;28673;44.412;11.918;2023-04-30T02:29:41;13.10;99.90
43049;DHT22;28673;44.412;11.918;2023-04-30T02:32:07;13.10;99.90
43049;DHT22;28673;44.412;11.918;2023-04-30T02:34:33;13.10;99.90
43049;DHT22;28673;44.412;11.918;2023-04-30T02:36:59;13.10;99.90
43049;DHT22;28673;44.412;11.918;2023-04-30T02:39:25;13.10;99.90
43049;DHT22;28673;44.412;11.918;2023-04-30T02:41:51;13.10;99.90
43049;DHT22;28673;44.412;11.918;2023-04-30T02:44:17;13.10;99.90
43049;DHT22;28673;44.412;11.918;2023-04-30T02:46:43;13.20;99.90
43049;DHT22;28673;44.412;11.918;2023-04-30T02:49:08;13.20;99.90
43049;DHT22;28673;44.412;11.918;2023-04-30T02:51:34;13.30;99.90
43049;DHT22;28673;44.412;11.918;2023-04-30T02:54:00;13.30;99.90
43049;DHT22;28673;44.412;11.918;2023-04-30T02:56:26;13.40;99.90
43049;DHT22;28673;44.412;11.918;2023-04-30T02:58:53;13.40;99.90
43049;DHT22;28673;44.412;11.918;2023-04-30T03:01:19;13.40;99.90
43049;DHT22;28673;44.412;11.918;2023-04-30T03:03:44;13.50;99.90
43049;DHT22;28673;44.412;11.918;2023-04-30T03:06:10;13.50;99.90
43049;DHT22;28673;44.412;11.918;2023-04-30T03:08:36;13.50;99.90
43049;DHT22;28673;44.412;11.918;2023-04-30T03:11:02;13.50;99.90
43049;DHT22;28673;44.412;11.918;2023-04-30T03:13:28;13.50;99.90
43049;DHT22;28673;44.412;11.918;2023-04-30T03:16:01;13.50;99.90
43049;DHT22;28673;44.412;11.918;2023-04-30T03:18:29;13.50;99.90
43049;DHT22;28673;44.412;11.918;2023-04-30T03:20:56;13.50;99.90
43049;DHT22;28673;44.412;11.918;2023-04-30T03:23:22;13.50;99.90
43049;DHT22;28673;44.412;11.918;2023-04-30T03:25:51;13.60;99.90
43049;DHT22;28673;44.412;11.918;2023-04-30T03:28:17;13.60;99.90
43049;DHT22;28673;44.412;11.918;2023-04-30T03:30:43;13.60;99.90
43049;DHT22;28673;44.412;11.918;2023-04-30T03:33:09;13.60;99.90
43049;DHT22;28673;44.412;11.918;2023-04-30T03:35:35;13.60;99.90
43049;DHT22;28673;44.412;11.918;2023-04-30T03:38:01;13.60;99.90
43049;DHT22;28673;44.412;11.918;2023-04-30T03:40:27;13.60;99.90
43049;DHT22;28673;44.412;11.918;2023-04-30T03:42:53;13.70;99.90
43049;DHT22;28673;44.412;11.918;2023-04-30T03:45:22;13.70;99.90
43049;DHT22;28673;44.412;11.918;2023-04-30T03:47:48;13.70;99.90
43049;DHT22;28673;44.412;11.918;2023-04-30T03:50:16;13.70;99.90
43049;DHT22;28673;44.412;11.918;2023-04-30T03:52:42;13.70;99.90
43049;DHT22;28673;44.412;11.918;2023-04-30T03:55:10;13.70;99.90
43049;DHT22;28673;44.412;11.918;2023-04-30T03:57:38;13.70;99.90
43049;DHT22;28673;44.412;11.918;2023-04-30T04:00:06;13.70;99.90
43049;DHT22;28673;44.412;11.918;2023-04-30T04:02:38;13.70;99.90
43049;DHT22;28673;44.412;11.918;2023-04-30T04:05:07;13.80;99.90
43049;DHT22;28673;44.412;11.918;2023-04-30T04:07:33;13.80;99.90
43049;DHT22;28673;44.412;11.918;2023-04-30T04:09:59;13.80;99.90
43049;DHT22;28673;44.412;11.918;2023-04-30T04:12:27;13.80;99.90
43049;DHT22;28673;44.412;11.918;2023-04-30T04:14:53;13.90;99.90
43049;DHT22;28673;44.412;11.918;2023-04-30T04:17:19;13.90;99.90
43049;DHT22;28673;44.412;11.918;2023-04-30T04:19:45;13.90;99.90
43049;DHT22;28673;44.412;11.918;2023-04-30T04:22:28;13.90;99.90
43049;DHT22;28673;44.412;11.918;2023-04-30T04:25:12;13.90;99.90
43049;DHT22;28673;44.412;11.918;2023-04-30T04:27:39;13.90;99.90
43049;DHT22;28673;44.412;11.918;2023-04-30T04:30:06;13.90;99.90
43049;DHT22;28673;44.412;11.918;2023-04-30T04:32:32;13.80;99.90
43049;DHT22;28673;44.412;11.918;2023-04-30T04:35:07;13.80;99.90
43049;DHT22;28673;44.412;11.918;2023-04-30T04:37:34;13.90;99.90
43049;DHT22;28673;44.412;11.918;2023-04-30T04:40:03;13.90;99.90
43049;DHT22;28673;44.412;11.918;2023-04-30T04:42:30;13.90;99.90
43049;DHT22;28673;44.412;11.918;2023-04-30T04:44:56;13.90;99.90
43049;DHT22;28673;44.412;11.918;2023-04-30T04:47:22;13.90;99.90
43049;DHT22;28673;44.412;11.918;2023-04-30T04:49:49;13.90;99.90
43049;DHT22;28673;44.412;11.918;2023-04-30T04:52:14;13.80;99.90
43049;DHT22;28673;44.412;11.918;2023-04-30T04:54:40;13.80;99.90
43049;DHT22;28673;44.412;11.918;2023-04-30T04:57:06;13.80;99.90
43049;DHT22;28673;44.412;11.918;2023-04-30T04:59:32;13.80;99.90
43049;DHT22;28673;44.412;11.918;2023-04-30T05:01:58;13.80;99.90
43049;DHT22;28673;44.412;11.918;2023-04-30T05:04:24;13.80;99.90
43049;DHT22;28673;44.412;11.918;2023-04-30T05:06:50;13.80;99.90
43049;DHT22;28673;44.412;11.918;2023-04-30T05:09:16;13.90;99.90
43049;DHT22;28673;44.412;11.918;2023-04-30T05:11:44;13.90;99.90
43049;DHT22;28673;44.412;11.918;2023-04-30T05:14:10;13.90;99.90
43049;DHT22;28673;44.412;11.918;2023-04-30T05:16:36;14.00;99.90
43049;DHT22;28673;44.412;11.918;2023-04-30T05:19:02;14.00;99.90
43049;DHT22;28673;44.412;11.918;2023-04-30T05:21:28;14.10;99.90
43049;DHT22;28673;44.412;11.918;2023-04-30T05:23:54;14.20;99.90
43049;DHT22;28673;44.412;11.918;2023-04-30T05:26:23;14.20;99.90
43049;DHT22;28673;44.412;11.918;2023-04-30T05:28:49;14.30;99.90
43049;DHT22;28673;44.412;11.918;2023-04-30T05:31:15;14.30;99.90
43049;DHT22;28673;44.412;11.918;2023-04-30T05:33:41;14.40;99.90
43049;DHT22;28673;44.412;11.918;2023-04-30T05:36:07;14.50;99.90
43049;DHT22;28673;44.412;11.918;2023-04-30T05:38:32;14.50;99.90
43049;DHT22;28673;44.412;11.918;2023-04-30T05:40:59;14.60;99.90
43049;DHT22;28673;44.412;11.918;2023-04-30T05:43:25;14.70;99.90
43049;DHT22;28673;44.412;11.918;2023-04-30T05:45:51;14.80;99.90
43049;DHT22;28673;44.412;11.918;2023-04-30T05:48:17;14.90;99.90
43049;DHT22;28673;44.412;11.918;2023-04-30T05:50:43;15.00;99.90
43049;DHT22;28673;44.412;11.918;2023-04-30T05:53:08;15.10;99.90
43049;DHT22;28673;44.412;11.918;2023-04-30T05:55:34;15.20;99.90
43049;DHT22;28673;44.412;11.918;2023-04-30T05:58:00;15.20;99.90
43049;DHT22;28673;44.412;11.918;2023-04-30T06:00:26;15.30;99.90
43049;DHT22;28673;44.412;11.918;2023-04-30T06:02:52;15.40;99.90
43049;DHT22;28673;44.412;11.918;2023-04-30T06:05:18;15.50;99.90
43049;DHT22;28673;44.412;11.918;2023-04-30T06:07:44;15.60;99.90
43049;DHT22;28673;44.412;11.918;2023-04-30T06:10:10;15.70;99.90
43049;DHT22;28673;44.412;11.918;2023-04-30T06:12:37;15.80;99.90
43049;DHT22;28673;44.412;11.918;2023-04-30T06:15:04;15.90;99.90
43049;DHT22;28673;44.412;11.918;2023-04-30T06:17:30;15.90;99.90
43049;DHT22;28673;44.412;11.918;2023-04-30T06:19:56;16.10;99.90
43049;DHT22;28673;44.412;11.918;2023-04-30T06:22:25;16.20;99.90
43049;DHT22;28673;44.412;11.918;2023-04-30T06:24:51;16.30;99.90
43049;DHT22;28673;44.412;11.918;2023-04-30T06:27:17;16.40;99.90
43049;DHT22;28673;44.412;11.918;2023-04-30T06:29:43;16.50;99.90
43049;DHT22;28673;44.412;11.918;2023-04-30T06:32:08;16.60;99.90
43049;DHT22;28673;44.412;11.918;2023-04-30T06:34:34;16.70;99.90
43049;DHT22;28673;44.412;11.918;2023-04-30T06:37:01;16.70;99.90
43049;DHT22;28673;44.412;11.918;2023-04-30T06:39:27;16.80;99.90
43049;DHT22;28673;44.412;11.918;2023-04-30T06:41:53;16.90;99.90
43049;DHT22;28673;44.412;11.918;2023-04-30T06:44:20;16.90;99.90
43049;DHT22;28673;44.412;11.918;2023-04-30T06:46:46;16.90;99.90
43049;DHT22;28673;44.412;11.918;2023-04-30T06:49:12;17.00;99.90
43049;DHT22;28673;44.412;11.918;2023-04-30T06:51:40;17.00;99.90
43049;DHT22;28673;44.412;11.918;2023-04-30T06:54:06;17.10;99.90
43049;DHT22;28673;44.412;11.918;2023-04-30T06:56:32;17.20;99.90
43049;DHT22;28673;44.412;11.918;2023-04-30T06:58:58;17.30;99.90
43049;DHT22;28673;44.412;11.918;2023-04-30T07:01:24;17.40;99.90
43049;DHT22;28673;44.412;11.918;2023-04-30T07:03:51;17.40;99.90
43049;DHT22;28673;44.412;11.918;2023-04-30T07:06:19;17.50;99.90
43049;DHT22;28673;44.412;11.918;2023-04-30T07:08:45;17.50;99.90
43049;DHT22;28673;44.412;11.918;2023-04-30T07:11:12;17.60;99.90
43049;DHT22;28673;44.412;11.918;2023-04-30T07:13:38;17.70;99.90
43049;DHT22;28673;44.412;11.918;2023-04-30T07:16:06;17.80;99.90
43049;DHT22;28673;44.412;11.918;2023-04-30T07:18:37;17.90;99.90
43049;DHT22;28673;44.412;11.918;2023-04-30T07:21:05;18.00;99.90
43049;DHT22;28673;44.412;11.918;2023-04-30T07:23:35;18.10;99.90
43049;DHT22;28673;44.412;11.918;2023-04-30T07:26:01;18.30;99.90
43049;DHT22;28673;44.412;11.918;2023-04-30T07:28:27;18.40;99.90
43049;DHT22;28673;44.412;11.918;2023-04-30T07:30:54;18.50;99.90
43049;DHT22;28673;44.412;11.918;2023-04-30T07:33:20;18.60;99.90
43049;DHT22;28673;44.412;11.918;2023-04-30T07:35:46;18.70;99.90
43049;DHT22;28673;44.412;11.918;2023-04-30T07:38:12;18.90;99.90
43049;DHT22;28673;44.412;11.918;2023-04-30T07:40:38;19.10;99.90
43049;DHT22;28673;44.412;11.918;2023-04-30T07:43:05;19.30;99.90
43049;DHT22;28673;44.412;11.918;2023-04-30T07:45:31;19.40;99.90
43049;DHT22;28673;44.412;11.918;2023-04-30T07:48:05;19.50;99.90
43049;DHT22;28673;44.412;11.918;2023-04-30T07:50:32;19.60;99.90
43049;DHT22;28673;44.412;11.918;2023-04-30T07:52:59;19.80;99.90
43049;DHT22;28673;44.412;11.918;2023-04-30T07:55:25;20.00;99.90
43049;DHT22;28673;44.412;11.918;2023-04-30T07:57:51;20.20;99.90
43049;DHT22;28673;44.412;11.918;2023-04-30T08:00:17;20.30;99.90
43049;DHT22;28673;44.412;11.918;2023-04-30T08:02:43;20.50;99.90
43049;DHT22;28673;44.412;11.918;2023-04-30T08:05:10;20.70;99.90
43049;DHT22;28673;44.412;11.918;2023-04-30T08:07:36;20.70;99.90
43049;DHT22;28673;44.412;11.918;2023-04-30T08:10:02;20.90;99.90
43049;DHT22;28673;44.412;11.918;2023-04-30T08:12:28;21.00;99.90
43049;DHT22;28673;44.412;11.918;2023-04-30T08:15:03;21.10;99.90
43049;DHT22;28673;44.412;11.918;2023-04-30T08:17:30;21.30;99.90
43049;DHT22;28673;44.412;11.918;2023-04-30T08:19:56;21.40;99.90
43049;DHT22;28673;44.412;11.918;2023-04-30T08:22:23;21.50;99.90
43049;DHT22;28673;44.412;11.918;2023-04-30T08:24:48;21.50;99.90
43049;DHT22;28673;44.412;11.918;2023-04-30T08:27:15;21.50;99.90
43049;DHT22;28673;44.412;11.918;2023-04-30T08:29:41;21.60;99.90
43049;DHT22;28673;44.412;11.918;2023-04-30T08:32:07;21.50;99.90
43049;DHT22;28673;44.412;11.918;2023-04-30T08:34:33;21.40;99.90
43049;DHT22;28673;44.412;11.918;2023-04-30T08:36:59;21.40;99.90
43049;DHT22;28673;44.412;11.918;2023-04-30T08:39:26;21.40;99.90
43049;DHT22;28673;44.412;11.918;2023-04-30T08:41:54;21.30;99.90
43049;DHT22;28673;44.412;11.918;2023-04-30T08:44:25;21.20;99.90
43049;DHT22;28673;44.412;11.918;2023-04-30T08:46:55;21.20;99.90
43049;DHT22;28673;44.412;11.918;2023-04-30T08:49:25;21.20;99.90
43049;DHT22;28673;44.412;11.918;2023-04-30T08:51:51;21.20;99.90
43049;DHT22;28673;44.412;11.918;2023-04-30T08:54:18;21.10;99.90
43049;DHT22;28673;44.412;11.918;2023-04-30T08:56:45;21.20;99.90
43049;DHT22;28673;44.412;11.918;2023-04-30T08:59:13;21.20;99.90
43049;DHT22;28673;44.412;11.918;2023-04-30T09:01:40;21.30;99.90
43049;DHT22;28673;44.412;11.918;2023-04-30T09:04:06;21.40;99.90
43049;DHT22;28673;44.412;11.918;2023-04-30T09:06:32;21.60;99.90
43049;DHT22;28673;44.412;11.918;2023-04-30T09:09:10;21.90;99.90
43049;DHT22;28673;44.412;11.918;2023-04-30T09:11:37;22.20;99.90
43049;DHT22;28673;44.412;11.918;2023-04-30T09:14:03;22.20;99.90
43049;DHT22;28673;44.412;11.918;2023-04-30T09:16:47;22.30;99.90
43049;DHT22;28673;44.412;11.918;2023-04-30T09:19:23;22.40;99.90
43049;DHT22;28673;44.412;11.918;2023-04-30T09:21:49;22.70;99.90
43049;DHT22;28673;44.412;11.918;2023-04-30T09:24:16;23.00;99.90
43049;DHT22;28673;44.412;11.918;2023-04-30T09:26:42;23.30;99.90
43049;DHT22;28673;44.412;11.918;2023-04-30T09:29:08;23.60;99.90
43049;DHT22;28673;44.412;11.918;2023-04-30T09:31:36;23.90;99.90
43049;DHT22;28673;44.412;11.918;2023-04-30T09:34:04;24.20;99.80
43049;DHT22;28673;44.412;11.918;2023-04-30T09:36:31;24.40;98.60
43049;DHT22;28673;44.412;11.918;2023-04-30T09:39:07;24.70;98.40
43049;DHT22;28673;44.412;11.918;2023-04-30T09:41:36;24.90;97.60
43049;DHT22;28673;44.412;11.918;2023-04-30T09:44:02;25.10;97.70
43049;DHT22;28673;44.412;11.918;2023-04-30T09:46:33;25.40;97.70
43049;DHT22;28673;44.412;11.918;2023-04-30T09:49:02;25.50;94.80
43049;DHT22;28673;44.412;11.918;2023-04-30T09:51:28;25.40;95.30
43049;DHT22;28673;44.412;11.918;2023-04-30T09:53:54;25.30;96.30
43049;DHT22;28673;44.412;11.918;2023-04-30T09:56:25;25.30;95.00
43049;DHT22;28673;44.412;11.918;2023-04-30T09:58:54;25.20;94.20
43049;DHT22;28673;44.412;11.918;2023-04-30T10:01:24;25.20;95.80
43049;DHT22;28673;44.412;11.918;2023-04-30T10:03:52;25.20;95.90
43049;DHT22;28673;44.412;11.918;2023-04-30T10:06:20;25.20;95.60
43049;DHT22;28673;44.412;11.918;2023-04-30T10:08:49;25.10;95.10
43049;DHT22;28673;44.412;11.918;2023-04-30T10:11:20;24.90;95.30
43049;DHT22;28673;44.412;11.918;2023-04-30T10:19:13;24.30;95.40
43049;DHT22;28673;44.412;11.918;2023-04-30T10:21:41;24.30;95.70
43049;DHT22;28673;44.412;11.918;2023-04-30T10:24:12;24.20;95.50
43049;DHT22;28673;44.412;11.918;2023-04-30T10:26:39;24.20;95.90
43049;DHT22;28673;44.412;11.918;2023-04-30T10:29:06;24.20;96.10
43049;DHT22;28673;44.412;11.918;2023-04-30T10:31:33;24.30;96.60
43049;DHT22;28673;44.412;11.918;2023-04-30T10:36:50;24.70;96.50
43049;DHT22;28673;44.412;11.918;2023-04-30T10:39:22;25.00;95.40
43049;DHT22;28673;44.412;11.918;2023-04-30T10:42:03;25.00;94.30
43049;DHT22;28673;44.412;11.918;2023-04-30T10:44:36;25.00;94.80
43049;DHT22;28673;44.412;11.918;2023-04-30T10:47:03;25.00;94.80
43049;DHT22;28673;44.412;11.918;2023-04-30T10:49:29;25.10;94.50
43049;DHT22;28673;44.412;11.918;2023-04-30T10:51:59;24.80;94.10
43049;DHT22;28673;44.412;11.918;2023-04-30T10:54:27;24.60;94.60
43049;DHT22;28673;44.412;11.918;2023-04-30T10:57:00;24.60;95.50
43049;DHT22;28673;44.412;11.918;2023-04-30T10:59:34;24.60;95.20
43049;DHT22;28673;44.412;11.918;2023-04-30T11:02:01;24.50;94.70
43049;DHT22;28673;44.412;11.918;2023-04-30T11:04:28;24.40;94.70
43049;DHT22;28673;44.412;11.918;2023-04-30T11:07:08;24.20;95.00
43049;DHT22;28673;44.412;11.918;2023-04-30T11:09:41;24.20;95.40
43049;DHT22;28673;44.412;11.918;2023-04-30T11:12:19;24.10;95.40
43049;DHT22;28673;44.412;11.918;2023-04-30T11:15:03;24.20;95.30
43049;DHT22;28673;44.412;11.918;2023-04-30T11:17:31;24.20;95.80
43049;DHT22;28673;44.412;11.918;2023-04-30T11:19:59;24.10;95.40
43049;DHT22;28673;44.412;11.918;2023-04-30T11:22:26;24.20;96.10
43049;DHT22;28673;44.412;11.918;2023-04-30T11:25:10;24.30;95.00
43049;DHT22;28673;44.412;11.918;2023-04-30T11:27:41;24.20;95.10
43049;DHT22;28673;44.412;11.918;2023-04-30T11:30:16;24.30;95.90
43049;DHT22;28673;44.412;11.918;2023-04-30T11:32:44;24.50;95.70
43049;DHT22;28673;44.412;11.918;2023-04-30T11:35:12;24.70;95.20
43049;DHT22;28673;44.412;11.918;2023-04-30T11:37:40;24.70;95.20
43049;DHT22;28673;44.412;11.918;2023-04-30T11:40:10;24.80;95.10
43049;DHT22;28673;44.412;11.918;2023-04-30T11:42:38;25.10;94.50
43049;DHT22;28673;44.412;11.918;2023-04-30T11:45:08;25.20;94.20
43049;DHT22;28673;44.412;11.918;2023-04-30T11:47:44;25.40;93.60
43049;DHT22;28673;44.412;11.918;2023-04-30T11:50:12;25.50;93.70
43049;DHT22;28673;44.412;11.918;2023-04-30T11:52:39;25.60;93.40
43049;DHT22;28673;44.412;11.918;2023-04-30T11:55:13;25.60;92.90
43049;DHT22;28673;44.412;11.918;2023-04-30T11:57:44;25.80;93.30
43049;DHT22;28673;44.412;11.918;2023-04-30T12:00:18;25.80;92.80
43049;DHT22;28673;44.412;11.918;2023-04-30T12:02:46;25.90;92.80
43049;DHT22;28673;44.412;11.918;2023-04-30T12:05:14;25.80;92.60
43049;DHT22;28673;44.412;11.918;2023-04-30T12:07:47;26.00;92.30
43049;DHT22;28673;44.412;11.918;2023-04-30T12:10:13;26.10;92.80
43049;DHT22;28673;44.412;11.918;2023-04-30T12:12:41;26.40;92.90
43049;DHT22;28673;44.412;11.918;2023-04-30T12:15:18;26.50;92.60
43049;DHT22;28673;44.412;11.918;2023-04-30T12:17:45;26.50;91.30
43049;DHT22;28673;44.412;11.918;2023-04-30T12:20:12;26.50;92.10
43049;DHT22;28673;44.412;11.918;2023-04-30T12:22:41;26.40;92.20
43049;DHT22;28673;44.412;11.918;2023-04-30T12:25:11;26.50;92.00
43049;DHT22;28673;44.412;11.918;2023-04-30T12:27:44;26.60;92.40
43049;DHT22;28673;44.412;11.918;2023-04-30T12:30:10;26.60;91.80
43049;DHT22;28673;44.412;11.918;2023-04-30T12:32:39;26.70;91.70
43049;DHT22;28673;44.412;11.918;2023-04-30T12:35:06;26.60;91.20
43049;DHT22;28673;44.412;11.918;2023-04-30T12:37:32;26.60;91.70
43049;DHT22;28673;44.412;11.918;2023-04-30T12:39:58;26.60;91.40
43049;DHT22;28673;44.412;11.918;2023-04-30T12:42:25;26.60;91.60
43049;DHT22;28673;44.412;11.918;2023-04-30T12:44:57;26.60;91.70
43049;DHT22;28673;44.412;11.918;2023-04-30T12:47:24;26.80;91.60
43049;DHT22;28673;44.412;11.918;2023-04-30T12:49:50;26.70;91.40
43049;DHT22;28673;44.412;11.918;2023-04-30T12:52:16;26.70;91.70
43049;DHT22;28673;44.412;11.918;2023-04-30T12:54:42;26.90;91.70
43049;DHT22;28673;44.412;11.918;2023-04-30T12:57:10;26.90;90.90
43049;DHT22;28673;44.412;11.918;2023-04-30T13:02:11;27.20;91.40
43049;DHT22;28673;44.412;11.918;2023-04-30T13:04:39;27.10;90.60
43049;DHT22;28673;44.412;11.918;2023-04-30T13:07:05;27.10;90.80
43049;DHT22;28673;44.412;11.918;2023-04-30T13:09:35;26.90;90.40
43049;DHT22;28673;44.412;11.918;2023-04-30T13:12:02;26.70;90.70
43049;DHT22;28673;44.412;11.918;2023-04-30T13:14:28;26.30;90.70
43049;DHT22;28673;44.412;11.918;2023-04-30T13:16:54;26.10;91.30
43049;DHT22;28673;44.412;11.918;2023-04-30T13:19:20;26.10;91.40
43049;DHT22;28673;44.412;11.918;2023-04-30T13:21:46;26.10;91.60
43049;DHT22;28673;44.412;11.918;2023-04-30T13:24:12;26.20;91.60
43049;DHT22;28673;44.412;11.918;2023-04-30T13:26:38;26.20;91.90
43049;DHT22;28673;44.412;11.918;2023-04-30T13:29:04;26.30;91.70
43049;DHT22;28673;44.412;11.918;2023-04-30T13:31:31;26.50;91.50
43049;DHT22;28673;44.412;11.918;2023-04-30T13:33:57;26.40;91.60
43049;DHT22;28673;44.412;11.918;2023-04-30T13:36:23;26.40;91.50
43049;DHT22;28673;44.412;11.918;2023-04-30T13:38:49;26.20;91.40
43049;DHT22;28673;44.412;11.918;2023-04-30T13:41:14;26.30;91.50
43049;DHT22;28673;44.412;11.918;2023-04-30T13:43:40;26.40;91.50
43049;DHT22;28673;44.412;11.918;2023-04-30T13:46:10;26.40;91.00
43049;DHT22;28673;44.412;11.918;2023-04-30T13:48:36;26.30;91.30
43049;DHT22;28673;44.412;11.918;2023-04-30T13:51:02;26.30;91.50
43049;DHT22;28673;44.412;11.918;2023-04-30T13:53:28;26.30;91.60
43049;DHT22;28673;44.412;11.918;2023-04-30T13:55:54;26.40;91.80
43049;DHT22;28673;44.412;11.918;2023-04-30T13:58:21;26.50;91.80
43049;DHT22;28673;44.412;11.918;2023-04-30T14:00:46;26.50;91.50
43049;DHT22;28673;44.412;11.918;2023-04-30T14:03:17;26.50;91.60
43049;DHT22;28673;44.412;11.918;2023-04-30T14:05:43;26.60;91.80
43049;DHT22;28673;44.412;11.918;2023-04-30T14:08:12;26.70;91.60
43049;DHT22;28673;44.412;11.918;2023-04-30T14:10:38;26.60;91.60
43049;DHT22;28673;44.412;11.918;2023-04-30T14:13:04;26.60;91.10
43049;DHT22;28673;44.412;11.918;2023-04-30T14:15:30;26.60;91.40
43049;DHT22;28673;44.412;11.918;2023-04-30T14:17:57;26.70;91.40
43049;DHT22;28673;44.412;11.918;2023-04-30T14:20:24;26.70;91.00
43049;DHT22;28673;44.412;11.918;2023-04-30T14:22:50;26.60;90.40
43049;DHT22;28673;44.412;11.918;2023-04-30T14:25:16;26.50;90.10
43049;DHT22;28673;44.412;11.918;2023-04-30T14:27:42;26.40;90.10
43049;DHT22;28673;44.412;11.918;2023-04-30T14:30:09;26.10;90.70
43049;DHT22;28673;44.412;11.918;2023-04-30T14:32:40;26.00;91.10
43049;DHT22;28673;44.412;11.918;2023-04-30T14:35:06;25.80;91.10
43049;DHT22;28673;44.412;11.918;2023-04-30T14:37:32;25.80;91.10
43049;DHT22;28673;44.412;11.918;2023-04-30T14:39:58;25.70;91.30
43049;DHT22;28673;44.412;11.918;2023-04-30T14:42:26;25.60;91.30
43049;DHT22;28673;44.412;11.918;2023-04-30T14:44:52;25.40;91.20
43049;DHT22;28673;44.412;11.918;2023-04-30T14:47:18;25.40;91.80
43049;DHT22;28673;44.412;11.918;2023-04-30T14:49:46;25.20;91.60
43049;DHT22;28673;44.412;11.918;2023-04-30T14:52:13;25.10;91.50
43049;DHT22;28673;44.412;11.918;2023-04-30T14:54:40;25.10;91.90
43049;DHT22;28673;44.412;11.918;2023-04-30T14:57:06;25.00;92.10
43049;DHT22;28673;44.412;11.918;2023-04-30T14:59:32;24.80;91.80
43049;DHT22;28673;44.412;11.918;2023-04-30T15:01:59;24.70;92.10
43049;DHT22;28673;44.412;11.918;2023-04-30T15:04:25;24.70;92.30
43049;DHT22;28673;44.412;11.918;2023-04-30T15:06:51;24.80;92.10
43049;DHT22;28673;44.412;11.918;2023-04-30T15:09:17;24.70;92.30
43049;DHT22;28673;44.412;11.918;2023-04-30T15:11:46;24.80;92.30
43049;DHT22;28673;44.412;11.918;2023-04-30T15:14:15;24.90;92.20
43049;DHT22;28673;44.412;11.918;2023-04-30T15:16:44;25.00;91.90
43049;DHT22;28673;44.412;11.918;2023-04-30T15:19:13;25.10;92.50
43049;DHT22;28673;44.412;11.918;2023-04-30T15:21:39;25.40;92.10
43049;DHT22;28673;44.412;11.918;2023-04-30T15:24:05;25.40;91.40
43049;DHT22;28673;44.412;11.918;2023-04-30T15:26:31;25.10;91.30
43049;DHT22;28673;44.412;11.918;2023-04-30T15:28:57;25.10;91.50
43049;DHT22;28673;44.412;11.918;2023-04-30T15:31:23;25.00;91.80
43049;DHT22;28673;44.412;11.918;2023-04-30T15:33:49;24.90;91.40
43049;DHT22;28673;44.412;11.918;2023-04-30T15:36:15;24.70;91.70
43049;DHT22;28673;44.412;11.918;2023-04-30T15:38:42;24.60;91.60
43049;DHT22;28673;44.412;11.918;2023-04-30T15:41:08;24.60;91.90
43049;DHT22;28673;44.412;11.918;2023-04-30T15:43:33;24.50;92.10
43049;DHT22;28673;44.412;11.918;2023-04-30T15:45:59;24.40;92.20
43049;DHT22;28673;44.412;11.918;2023-04-30T15:48:25;24.30;92.30
43049;DHT22;28673;44.412;11.918;2023-04-30T15:50:51;24.20;92.40